Time;durP1;ratioP1;P1;durP2;ratioP2;P2;SDS_P1;SDS_P2;PMS_P1;PMS_P2;Temp;Humidity;BMP_temperature;BMP_pressure;BME280_temperature;BME280_humidity;BME280_pressure;Samples;Min_cycle;Max_cycle;Signal;HPM_P1;HPM_P2
2022/03/04 00:01:21;;;;;;;15.57;12.90;;;;;;;7.36;47.26;99325.56;5029983;28;20218;-59
2022/03/04 00:03:48;;;;;;;18.73;13.17;;;;;;;7.29;47.42;99321.13;5030331;28;20193;-59
2022/03/04 00:06:15;;;;;;;18.40;14.13;;;;;;;7.27;47.24;99319.38;5030283;28;20282;-59
2022/03/04 00:08:42;;;;;;;17.92;15.30;;;;;;;7.29;47.70;99318.56;5029083;28;20454;-59
2022/03/04 00:11:09;;;;;;;17.87;14.10;;;;;;;7.31;47.74;99321.16;5030258;28;20271;-59
2022/03/04 00:13:36;;;;;;;22.43;13.77;;;;;;;7.23;48.77;99318.41;5029898;28;20762;-59
2022/03/04 00:16:03;;;;;;;30.40;20.67;;;;;;;6.89;53.36;99318.34;5029935;28;20200;-59
2022/03/04 00:18:32;;;;;;;30.43;22.30;;;;;;;6.25;57.57;99319.03;5030058;28;20198;-59
2022/03/04 00:20:59;;;;;;;31.77;22.40;;;;;;;6.01;59.15;99325.06;5029854;28;20204;-59
2022/03/04 00:23:26;;;;;;;32.17;24.63;;;;;;;5.93;60.19;99324.81;5030006;28;20203;-58
2022/03/04 00:25:52;;;;;;;36.20;25.57;;;;;;;5.80;61.09;99318.41;5029748;28;20203;-59
2022/03/04 00:28:19;;;;;;;34.70;25.80;;;;;;;5.64;62.57;99323.84;5047692;28;20231;-58
2022/03/04 00:30:46;;;;;;;37.53;26.33;;;;;;;5.60;62.09;99310.97;5049513;28;20287;-59
2022/03/04 00:33:13;;;;;;;43.27;32.77;;;;;;;5.59;63.77;99312.63;5048818;28;20446;-59
2022/03/04 00:35:41;;;;;;;41.60;30.73;;;;;;;5.61;63.21;99311.00;5049658;28;20194;-59
2022/03/04 00:38:08;;;;;;;39.85;31.83;;;;;;;5.46;64.20;99318.16;5046243;28;20454;-58
2022/03/04 00:40:35;;;;;;;41.17;31.27;;;;;;;5.49;64.99;99313.16;5042137;28;20200;-59
2022/03/04 00:43:02;;;;;;;43.33;29.70;;;;;;;5.38;64.83;99312.78;5048514;28;20204;-59
2022/03/04 00:45:29;;;;;;;42.27;30.77;;;;;;;5.35;65.31;99314.38;5049008;28;20203;-58
2022/03/04 00:47:56;;;;;;;45.40;30.50;;;;;;;5.27;65.09;99316.63;5048599;28;20217;-59
2022/03/04 00:50:23;;;;;;;46.23;32.27;;;;;;;5.25;66.19;99322.50;5049166;28;20191;-59
2022/03/04 00:52:51;;;;;;;46.93;32.33;;;;;;;5.29;66.28;99322.69;5048600;28;20231;-59
2022/03/04 00:55:18;;;;;;;40.83;29.87;;;;;;;5.28;66.09;99323.47;5048590;28;20280;-59
2022/03/04 00:57:45;;;;;;;43.60;32.07;;;;;;;5.18;66.57;99326.53;5048711;28;20185;-59
2022/03/04 01:00:13;;;;;;;44.07;31.63;;;;;;;5.18;66.26;99318.03;5052124;28;20776;-59
2022/03/04 01:02:41;;;;;;;49.90;36.30;;;;;;;5.23;66.66;99314.81;5051870;28;20439;-59
2022/03/04 01:05:08;;;;;;;49.63;33.47;;;;;;;5.36;66.76;99316.09;5052235;28;20571;-59
2022/03/04 01:07:35;;;;;;;50.57;33.77;;;;;;;5.39;66.25;99311.09;5052428;28;20311;-59
2022/03/04 01:10:04;;;;;;;60.50;34.77;;;;;;;5.35;66.33;99309.28;5051589;28;20491;-59
2022/03/04 01:12:31;;;;;;;59.13;34.00;;;;;;;5.30;66.70;99304.00;5043935;28;20201;-59
2022/03/04 01:14:58;;;;;;;58.10;33.83;;;;;;;5.23;66.77;99304.63;5052194;28;20198;-59
2022/03/04 01:17:25;;;;;;;56.53;34.00;;;;;;;5.31;66.40;99302.34;5052640;28;20204;-59
2022/03/04 01:19:52;;;;;;;61.70;39.33;;;;;;;5.38;65.78;99293.22;5052200;28;20450;-59
2022/03/04 01:22:19;;;;;;;57.57;34.63;;;;;;;5.44;66.27;99298.53;5052665;28;20195;-59
2022/03/04 01:24:46;;;;;;;52.37;33.73;;;;;;;5.50;66.24;99291.06;5052594;28;20198;-59
2022/03/04 01:27:14;;;;;;;52.03;38.63;;;;;;;5.45;65.74;99288.38;5051602;28;20518;-60
2022/03/04 01:29:41;;;;;;;48.27;32.67;;;;;;;5.38;65.63;99289.00;5052444;28;20313;-59
2022/03/04 01:32:09;;;;;;;52.37;34.00;;;;;;;5.34;66.05;99293.13;5052396;28;20278;-59
2022/03/04 01:34:35;;;;;;;48.77;34.77;;;;;;;5.33;66.33;99293.06;5052274;28;20262;-59
2022/03/04 01:37:03;;;;;;;48.87;32.47;;;;;;;5.27;67.29;99291.16;5052422;28;20285;-59
2022/03/04 01:39:29;;;;;;;39.13;30.30;;;;;;;5.27;66.57;99280.97;5052227;28;20289;-59
2022/03/04 01:41:56;;;;;;;40.07;29.50;;;;;;;5.29;65.81;99287.00;5052257;28;20683;-59
2022/03/04 01:44:25;;;;;;;44.03;30.67;;;;;;;5.20;66.69;99270.53;5052236;28;20197;-59
2022/03/04 01:46:52;;;;;;;42.10;31.50;;;;;;;5.23;65.79;99278.28;5052148;28;20199;-59
2022/03/04 01:49:19;;;;;;;42.30;30.17;;;;;;;5.32;65.41;99281.16;5052180;28;20278;-59
2022/03/04 01:51:46;;;;;;;40.03;29.50;;;;;;;5.21;66.50;99272.28;5051869;28;20679;-59
2022/03/04 01:54:12;;;;;;;42.53;30.33;;;;;;;5.28;66.83;99277.63;5052172;28;20218;-59
2022/03/04 01:56:40;;;;;;;49.63;31.80;;;;;;;5.29;66.47;99271.72;5052132;28;20200;-59
2022/03/04 01:59:07;;;;;;;49.23;32.90;;;;;;;5.25;66.67;99269.00;5051824;28;20263;-59
2022/03/04 02:01:36;;;;;;;43.57;31.33;;;;;;;5.23;66.67;99263.88;5051897;28;20221;-58
2022/03/04 02:04:03;;;;;;;42.80;30.50;;;;;;;5.22;66.69;99262.13;5051900;28;20221;-59
2022/03/04 02:06:30;;;;;;;43.67;32.00;;;;;;;5.18;66.83;99254.34;5051917;28;20270;-57
2022/03/04 02:08:57;;;;;;;47.17;31.67;;;;;;;5.17;66.91;99252.63;5051592;28;20272;-58
2022/03/04 02:11:24;;;;;;;44.23;32.20;;;;;;;5.13;66.84;99255.88;5051060;28;20222;-58
2022/03/04 02:13:51;;;;;;;45.28;37.40;;;;;;;5.17;66.88;99258.56;5050647;28;20526;-58
2022/03/04 02:16:26;;;;;;;48.80;33.73;;;;;;;5.06;66.47;99224.25;5051515;28;20200;-58
2022/03/04 02:18:54;;;;;;;44.57;32.33;;;;;;;5.24;66.06;99255.44;5051619;28;20337;-58
2022/03/04 02:21:24;;;;;;;42.90;32.67;;;;;;;5.26;66.96;99252.94;5051525;28;20192;-58
2022/03/04 02:23:52;;;;;;;41.90;31.80;;;;;;;5.22;66.35;99267.22;5051725;28;20192;-58
2022/03/04 02:26:19;;;;;;;41.00;30.80;;;;;;;5.14;66.47;99252.50;5051677;28;20285;-58
2022/03/04 02:28:46;;;;;;;42.10;29.93;;;;;;;5.07;67.53;99251.47;5051134;28;20689;-58
2022/03/04 02:31:16;;;;;;;37.97;28.37;;;;;;;5.07;67.04;99255.69;5051420;28;20204;-58
2022/03/04 02:33:43;;;;;;;45.60;31.00;;;;;;;5.02;67.73;99253.00;5036833;28;20198;-58
2022/03/04 02:36:10;;;;;;;46.80;33.87;;;;;;;4.99;68.08;99252.88;5051230;28;20282;-57
2022/03/04 02:38:36;;;;;;;44.83;29.97;;;;;;;5.01;67.89;99258.88;5051110;28;20211;-57
2022/03/04 02:41:05;;;;;;;39.00;28.40;;;;;;;4.91;67.76;99258.53;5050714;28;20303;-58
2022/03/04 02:43:33;;;;;;;39.07;29.10;;;;;;;4.91;67.73;99266.16;5047661;28;20196;-58
2022/03/04 02:46:00;;;;;;;41.73;29.30;;;;;;;4.94;67.38;99266.25;5047905;28;20208;-58
2022/03/04 02:48:27;;;;;;;41.33;29.60;;;;;;;4.91;67.94;99264.47;5049355;28;20211;-59
2022/03/04 02:50:54;;;;;;;42.03;29.97;;;;;;;4.94;68.04;99253.53;5050252;28;20657;-59
2022/03/04 02:53:21;;;;;;;39.47;30.33;;;;;;;4.93;68.14;99264.50;5050923;28;20314;-58
2022/03/04 02:55:48;;;;;;;43.77;30.27;;;;;;;4.91;68.00;99251.75;5050800;28;20208;-58
2022/03/04 02:58:16;;;;;;;43.47;30.43;;;;;;;4.78;68.46;99267.38;5050688;28;20284;-58
2022/03/04 03:00:43;;;;;;;53.78;37.97;;;;;;;4.66;69.77;99267.84;5050648;28;20440;-58
2022/03/04 03:03:10;;;;;;;56.50;35.27;;;;;;;4.54;70.61;99275.03;5050501;28;20293;-58
2022/03/04 03:05:37;;;;;;;52.07;35.37;;;;;;;4.54;71.98;99276.69;5050331;28;20280;-59
2022/03/04 03:08:05;;;;;;;48.23;32.73;;;;;;;4.49;71.98;99284.16;5050170;28;20205;-59
2022/03/04 03:10:32;;;;;;;46.50;33.43;;;;;;;4.41;71.85;99279.59;5049722;28;20194;-59
2022/03/04 03:12:59;;;;;;;44.70;31.93;;;;;;;4.17;72.33;99280.41;5047430;28;20187;-59
2022/03/04 03:15:28;;;;;;;47.00;33.70;;;;;;;4.13;73.31;99283.66;5050253;28;20215;-59
2022/03/04 03:17:56;;;;;;;43.45;31.23;;;;;;;4.15;72.94;99288.78;5049718;28;20884;-59
2022/03/04 03:20:23;;;;;;;47.33;31.53;;;;;;;3.88;73.52;99253.03;5050241;28;20303;-58
2022/03/04 03:22:50;;;;;;;41.73;31.60;;;;;;;4.09;73.69;99288.59;5050116;28;20205;-59
2022/03/04 03:25:17;;;;;;;46.80;32.13;;;;;;;4.10;73.38;99292.84;5050313;28;20204;-59
2022/03/04 03:27:44;;;;;;;47.83;32.30;;;;;;;4.09;72.89;99293.66;5050279;28;20225;-59
2022/03/04 03:30:12;;;;;;;44.40;32.90;;;;;;;3.86;73.36;99247.03;5049958;28;20233;-59
2022/03/04 03:32:41;;;;;;;45.40;31.73;;;;;;;4.04;72.92;99287.53;5050131;28;20196;-59
2022/03/04 03:35:09;;;;;;;44.50;31.53;;;;;;;3.99;73.17;99289.03;5050202;28;20226;-59
2022/03/04 03:37:36;;;;;;;41.13;30.00;;;;;;;4.00;73.52;99294.19;5050315;28;20203;-59
2022/03/04 03:40:04;;;;;;;44.13;31.83;;;;;;;3.99;73.13;99289.91;5049959;28;20208;-59
2022/03/04 03:42:31;;;;;;;41.77;29.57;;;;;;;3.95;73.59;99297.34;5049927;28;20189;-59
2022/03/04 03:44:58;;;;;;;43.97;30.33;;;;;;;3.93;73.29;99297.28;5050102;28;20624;-59
2022/03/04 03:47:25;;;;;;;43.17;29.77;;;;;;;3.90;73.13;99296.31;5050061;28;20548;-58
2022/03/04 03:49:53;;;;;;;42.78;33.30;;;;;;;3.95;73.06;99298.22;5049572;28;20434;-58
2022/03/04 03:52:20;;;;;;;39.23;29.07;;;;;;;4.04;73.14;99290.94;5050111;28;20193;-59
2022/03/04 03:54:47;;;;;;;39.60;29.17;;;;;;;3.99;72.50;99296.66;5050171;28;20196;-59
2022/03/04 03:57:14;;;;;;;38.40;26.70;;;;;;;3.97;72.45;99290.66;5050044;28;20192;-59
2022/03/04 03:59:41;;;;;;;36.77;26.60;;;;;;;3.89;72.25;99292.03;5050057;28;20189;-57
2022/03/04 04:02:08;;;;;;;36.87;26.23;;;;;;;3.83;72.66;99296.88;5049982;28;20289;-57
2022/03/04 04:04:35;;;;;;;37.47;26.27;;;;;;;3.85;72.77;99296.13;5050059;28;20303;-58
2022/03/04 04:07:05;;;;;;;35.27;27.23;;;;;;;3.83;72.24;99302.81;5049993;28;20196;-58
2022/03/04 04:09:32;;;;;;;39.37;27.60;;;;;;;3.83;72.42;99296.88;5049646;28;20229;-57
2022/03/04 04:11:59;;;;;;;37.80;28.43;;;;;;;3.85;72.73;99297.78;5049967;28;20197;-58
2022/03/04 04:14:27;;;;;;;38.90;31.38;;;;;;;3.86;72.36;99300.41;5049188;28;20443;-58
2022/03/04 04:16:54;;;;;;;38.10;29.03;;;;;;;3.90;72.18;99293.78;5049971;28;20210;-58
2022/03/04 04:19:22;;;;;;;39.17;28.43;;;;;;;3.88;72.50;99302.97;5049750;28;20281;-58
2022/03/04 04:21:49;;;;;;;38.20;29.67;;;;;;;3.88;72.64;99298.78;5050073;28;20187;-58
2022/03/04 04:24:18;;;;;;;36.50;26.27;;;;;;;3.85;72.85;99298.66;5049974;28;20284;-58
2022/03/04 04:26:46;;;;;;;38.73;27.63;;;;;;;3.84;72.98;99293.53;5049829;28;20669;-58
2022/03/04 04:29:13;;;;;;;38.53;28.40;;;;;;;3.87;72.86;99294.53;5049726;28;20233;-58
2022/03/04 04:31:41;;;;;;;41.83;30.20;;;;;;;3.81;72.56;99299.34;5049792;28;20443;-58
2022/03/04 04:34:08;;;;;;;36.63;27.80;;;;;;;3.83;72.62;99291.78;5052342;28;20266;-59
2022/03/04 04:36:35;;;;;;;36.30;28.23;;;;;;;3.77;73.13;99302.56;5053636;28;20188;-58
2022/03/04 04:39:03;;;;;;;36.90;26.17;;;;;;;3.81;72.46;99298.50;5053846;28;20279;-59
2022/03/04 04:41:31;;;;;;;36.07;25.63;;;;;;;3.83;72.91;99301.94;5052956;28;20197;-59
2022/03/04 04:43:58;;;;;;;42.57;25.17;;;;;;;3.78;72.84;99301.78;5053428;28;20200;-59
2022/03/04 04:46:25;;;;;;;33.53;24.33;;;;;;;3.81;72.40;99304.44;5053274;28;20642;-59
2022/03/04 04:48:52;;;;;;;32.20;24.83;;;;;;;3.80;72.22;99307.78;5053153;28;20221;-59
2022/03/04 04:51:19;;;;;;;32.50;23.77;;;;;;;3.78;72.69;99301.78;5053206;28;20200;-59
2022/03/04 04:53:46;;;;;;;31.30;24.90;;;;;;;3.81;72.60;99303.56;5053191;28;20192;-58
2022/03/04 04:56:13;;;;;;;37.03;25.40;;;;;;;3.82;72.06;99310.41;5053155;28;20192;-58
2022/03/04 04:58:41;;;;;;;38.33;26.80;;;;;;;3.85;72.45;99303.72;5053027;28;20199;-58
2022/03/04 05:01:08;;;;;;;35.97;27.60;;;;;;;3.83;72.19;99301.94;5053047;28;20189;-59
2022/03/04 05:03:35;;;;;;;42.42;31.50;;;;;;;3.87;72.85;99309.78;5052382;28;20447;-59
2022/03/04 05:06:02;;;;;;;43.43;28.47;;;;;;;3.93;72.35;99302.34;5053024;28;20207;-59
2022/03/04 05:08:29;;;;;;;42.27;29.80;;;;;;;3.98;72.11;99302.56;5053020;28;20215;-58
2022/03/04 05:10:56;;;;;;;43.53;28.77;;;;;;;3.97;71.95;99309.31;5052913;28;20721;-58
2022/03/04 05:13:24;;;;;;;37.03;26.90;;;;;;;4.01;71.89;99313.69;5052855;28;20192;-59
2022/03/04 05:15:52;;;;;;;41.07;27.67;;;;;;;4.01;71.65;99308.59;5052537;28;20285;-59
2022/03/04 05:18:19;;;;;;;37.03;26.60;;;;;;;4.05;72.01;99318.09;5052490;28;20667;-59
2022/03/04 05:20:46;;;;;;;39.60;27.70;;;;;;;4.02;71.98;99314.56;5052697;28;20283;-59
2022/03/04 05:23:58;;;;;;;38.07;26.37;;;;;;;3.98;71.71;99318.66;5052831;28;20197;-58
2022/03/04 05:26:01;;;;;;;32.97;25.27;;;;;;;3.93;72.11;99320.16;5052607;28;20617;-59
2022/03/04 05:28:27;;;;;;;38.03;26.07;;;;;;;3.97;72.14;99321.16;5052169;28;20215;-59
2022/03/04 05:30:56;;;;;;;35.73;24.83;;;;;;;3.88;71.35;99328.41;5052339;28;20192;-58
2022/03/04 05:33:23;;;;;;;40.93;27.40;;;;;;;3.91;71.62;99329.41;5052347;28;20208;-59
2022/03/04 05:35:50;;;;;;;39.67;26.60;;;;;;;3.93;70.99;99337.06;5052331;28;20197;-59
2022/03/04 05:38:16;;;;;;;34.57;24.03;;;;;;;3.91;70.64;99334.47;5052108;28;20200;-58
2022/03/04 05:40:43;;;;;;;30.40;22.07;;;;;;;3.86;70.20;99332.56;5052182;28;20199;-58
2022/03/04 05:43:10;;;;;;;27.97;19.30;;;;;;;3.81;70.03;99337.47;5052150;28;20285;-57
2022/03/04 05:45:37;;;;;;;29.38;22.90;;;;;;;3.82;69.30;99331.56;5051208;28;21010;-58
2022/03/04 05:48:06;;;;;;;24.80;19.33;;;;;;;3.86;68.50;99338.50;5043679;28;20292;-59
2022/03/04 05:50:33;;;;;;;24.63;19.60;;;;;;;3.86;68.36;99343.59;5051992;28;20384;-59
2022/03/04 05:53:00;;;;;;;28.30;20.57;;;;;;;3.94;69.12;99338.81;5052206;28;20571;-58
2022/03/04 05:55:27;;;;;;;31.53;21.17;;;;;;;4.04;68.39;99336.69;5051797;28;20201;-58
2022/03/04 05:57:54;;;;;;;26.50;20.47;;;;;;;4.08;68.38;99345.31;5051917;28;20278;-58
2022/03/04 06:00:21;;;;;;;25.23;19.80;;;;;;;4.10;68.22;99336.06;5052154;28;20575;-58
2022/03/04 06:02:48;;;;;;;23.83;19.30;;;;;;;4.15;68.05;99348.13;5051456;28;20201;-60
2022/03/04 06:05:16;;;;;;;33.40;19.10;;;;;;;4.14;68.54;99346.44;5051898;28;20196;-60
2022/03/04 06:07:43;;;;;;;25.67;20.07;;;;;;;4.15;68.24;99343.06;5051686;28;20192;-61
2022/03/04 06:10:10;;;;;;;31.43;20.27;;;;;;;4.25;67.98;99351.91;5051363;28;20227;-59
2022/03/04 06:12:37;;;;;;;25.03;19.23;;;;;;;4.37;67.40;99343.91;5051715;28;20197;-59
2022/03/04 06:15:05;;;;;;;31.65;21.83;;;;;;;4.38;67.26;99348.16;5051318;28;20953;-59
2022/03/04 06:17:32;;;;;;;27.43;20.97;;;;;;;4.36;67.22;99353.19;5051323;28;20197;-61
2022/03/04 06:19:59;;;;;;;29.13;20.33;;;;;;;4.39;67.19;99353.31;5051140;28;20196;-61
2022/03/04 06:22:28;;;;;;;29.43;20.73;;;;;;;4.39;66.25;99353.31;5051359;28;20202;-61
2022/03/04 06:24:54;;;;;;;31.47;20.60;;;;;;;4.47;66.62;99344.31;5051136;28;20203;-61
2022/03/04 06:27:22;;;;;;;28.47;20.07;;;;;;;4.54;66.55;99347.94;5051158;28;20244;-60
2022/03/04 06:29:49;;;;;;;27.83;20.13;;;;;;;4.64;65.83;99353.41;5050850;28;20334;-61
2022/03/04 06:32:16;;;;;;;27.93;20.63;;;;;;;4.72;65.66;99343.53;5050364;28;20284;-60
2022/03/04 06:34:43;;;;;;;30.92;23.70;;;;;;;4.91;64.64;99345.06;5049946;28;20453;-61
2022/03/04 06:37:11;;;;;;;38.03;22.13;;;;;;;5.05;64.19;99346.41;5050656;28;20193;-61
2022/03/04 06:39:40;;;;;;;29.50;22.77;;;;;;;5.09;63.27;99351.66;5049006;28;20918;-60
2022/03/04 06:42:07;;;;;;;30.83;21.00;;;;;;;5.21;63.68;99356.31;5049826;28;20284;-61
2022/03/04 06:44:34;;;;;;;25.07;19.80;;;;;;;5.34;62.99;99343.19;5049836;28;20213;-60
2022/03/04 06:47:01;;;;;;;26.20;21.53;;;;;;;5.43;62.59;99337.56;5050426;28;20261;-62
2022/03/04 06:49:28;;;;;;;33.50;19.20;;;;;;;5.50;61.45;99345.44;5050409;28;20229;-61
2022/03/04 06:51:54;;;;;;;27.93;19.50;;;;;;;5.54;61.47;99343.88;5050735;28;20197;-61
2022/03/04 06:54:21;;;;;;;28.87;22.03;;;;;;;5.60;61.78;99349.19;5050835;28;20211;-61
2022/03/04 06:56:50;;;;;;;25.93;20.13;;;;;;;5.49;61.53;99348.81;5049968;28;20666;-60
2022/03/04 06:59:17;;;;;;;29.57;24.23;;;;;;;5.55;62.34;99343.91;5049345;28;20771;-61
2022/03/04 07:01:44;;;;;;;25.97;20.83;;;;;;;5.69;61.60;99342.69;5050332;28;20289;-61
2022/03/04 07:04:11;;;;;;;28.75;22.95;;;;;;;5.85;61.06;99350.06;5050011;28;20443;-60
2022/03/04 07:06:38;;;;;;;30.80;22.93;;;;;;;5.94;60.39;99350.34;5050351;28;20741;-61
2022/03/04 07:09:05;;;;;;;28.47;21.00;;;;;;;5.89;61.04;99356.13;5050257;28;20221;-61
2022/03/04 07:11:32;;;;;;;27.70;21.07;;;;;;;5.97;60.24;99352.13;5049999;28;20204;-61
2022/03/04 07:14:00;;;;;;;31.97;21.97;;;;;;;6.07;60.66;99345.66;5049937;28;20210;-61
2022/03/04 07:16:27;;;;;;;31.77;23.00;;;;;;;6.21;60.43;99349.47;5050062;28;20293;-61
2022/03/04 07:18:54;;;;;;;30.77;22.77;;;;;;;6.33;59.85;99354.97;5049134;28;20189;-61
2022/03/04 07:21:21;;;;;;;41.07;24.13;;;;;;;6.39;59.78;99345.81;5050136;28;20204;-61
2022/03/04 07:23:48;;;;;;;41.45;32.13;;;;;;;6.55;60.04;99347.13;5049243;28;20513;-61
2022/03/04 07:26:15;;;;;;;40.93;28.13;;;;;;;6.74;58.78;99348.53;5050190;28;20732;-59
2022/03/04 07:28:42;;;;;;;43.00;28.00;;;;;;;6.88;58.51;99347.25;5049876;28;20697;-58
2022/03/04 07:31:10;;;;;;;36.37;24.90;;;;;;;6.85;58.14;99330.16;5049895;28;20189;-59
2022/03/04 07:33:37;;;;;;;31.93;24.50;;;;;;;6.94;57.96;99348.28;5050602;28;20198;-59
2022/03/04 07:36:04;;;;;;;34.27;25.13;;;;;;;6.97;57.52;99344.94;5049709;28;20198;-59
2022/03/04 07:38:32;;;;;;;36.60;24.20;;;;;;;6.85;57.65;99345.47;5049299;28;20198;-59
2022/03/04 07:40:59;;;;;;;35.03;23.97;;;;;;;6.93;57.64;99348.22;5049983;28;20203;-58
2022/03/04 07:43:26;;;;;;;40.80;27.27;;;;;;;7.01;57.15;99344.19;5049792;28;20208;-58
2022/03/04 07:45:53;;;;;;;37.53;28.53;;;;;;;7.01;57.12;99342.50;5049362;28;20450;-58
2022/03/04 07:48:21;;;;;;;40.83;24.77;;;;;;;7.14;57.35;99351.41;5049909;28;20700;-58
2022/03/04 07:50:48;;;;;;;39.87;24.27;;;;;;;7.26;57.21;99350.84;5050153;28;20222;-59
2022/03/04 07:53:15;;;;;;;31.27;23.30;;;;;;;7.18;56.68;99348.09;5049527;28;20206;-59
2022/03/04 07:55:42;;;;;;;34.63;25.33;;;;;;;7.27;56.91;99348.34;5050230;28;20206;-59
2022/03/04 07:58:09;;;;;;;37.97;25.80;;;;;;;7.04;57.24;99346.84;5049934;28;20225;-58
2022/03/04 08:00:36;;;;;;;32.93;22.30;;;;;;;6.99;57.15;99348.41;5049458;28;20202;-59
2022/03/04 08:03:03;;;;;;;31.00;21.77;;;;;;;6.96;57.18;99350.88;5050203;28;20207;-59
2022/03/04 08:05:32;;;;;;;33.50;22.13;;;;;;;6.98;57.13;99349.22;5049717;28;20201;-59
2022/03/04 08:07:59;;;;;;;31.98;25.35;;;;;;;7.20;55.86;99354.09;5047277;28;20458;-59
2022/03/04 08:10:26;;;;;;;28.93;23.07;;;;;;;7.39;54.57;99353.75;5050762;28;20223;-59
2022/03/04 08:12:53;;;;;;;45.17;24.10;;;;;;;7.58;54.79;99350.84;5053524;28;20831;-61
2022/03/04 08:15:20;;;;;;;35.65;27.38;;;;;;;7.68;55.23;99352.84;5052922;28;21263;-60
2022/03/04 08:17:47;;;;;;;28.63;23.00;;;;;;;7.79;54.21;99348.00;5050880;28;21082;-60
2022/03/04 08:20:14;;;;;;;37.57;24.77;;;;;;;7.81;53.95;99343.78;5053894;28;20300;-60
2022/03/04 08:22:42;;;;;;;34.90;23.33;;;;;;;7.82;53.12;99350.63;5053168;28;20870;-58
2022/03/04 08:25:10;;;;;;;37.90;26.13;;;;;;;7.55;54.18;99343.09;5053362;28;20187;-60
2022/03/04 08:27:40;;;;;;;32.67;25.77;;;;;;;7.33;53.57;99348.50;5051315;28;20278;-60
2022/03/04 08:30:09;;;;;;;35.53;25.57;;;;;;;7.13;53.46;99354.75;5053259;28;20708;-60
2022/03/04 08:32:36;;;;;;;31.93;22.50;;;;;;;7.03;52.94;99348.53;5053439;28;20207;-60
2022/03/04 08:35:04;;;;;;;33.67;23.50;;;;;;;7.34;52.38;99342.56;5052942;28;20688;-59
2022/03/04 08:37:31;;;;;;;28.33;22.00;;;;;;;7.57;51.50;99349.16;5052926;28;20293;-60
2022/03/04 08:39:59;;;;;;;32.50;27.07;;;;;;;7.70;51.08;99319.63;5052120;28;20568;-60
2022/03/04 08:42:26;;;;;;;32.40;24.47;;;;;;;8.06;50.20;99340.09;5052874;28;20696;-61
2022/03/04 08:44:54;;;;;;;33.63;23.07;;;;;;;8.20;49.91;99344.72;5053238;28;20226;-60
2022/03/04 08:47:21;;;;;;;33.07;22.93;;;;;;;8.38;49.73;99338.34;5052495;28;20231;-61
2022/03/04 08:49:48;;;;;;;36.80;21.23;;;;;;;8.54;48.89;99337.84;5052587;28;20273;-61
2022/03/04 08:52:15;;;;;;;30.80;22.17;;;;;;;8.55;48.69;99348.09;5035671;28;20595;-61
2022/03/04 08:54:42;;;;;;;26.53;21.93;;;;;;;8.26;49.35;99342.31;5032706;28;20216;-59
2022/03/04 08:57:10;;;;;;;31.80;21.60;;;;;;;8.02;49.70;99330.66;5032967;28;20214;-61
2022/03/04 08:59:38;;;;;;;33.27;22.00;;;;;;;8.44;49.20;99339.31;5033348;28;20243;-60
2022/03/04 09:02:05;;;;;;;31.17;22.47;;;;;;;8.69;48.41;99336.44;5044802;28;20625;-61
2022/03/04 09:04:32;;;;;;;25.87;21.53;;;;;;;8.51;48.65;99333.50;5052026;28;20203;-60
2022/03/04 09:06:59;;;;;;;30.00;21.87;;;;;;;8.61;49.16;99335.44;5048361;28;20221;-61
2022/03/04 09:09:26;;;;;;;28.07;19.87;;;;;;;8.92;47.07;99338.63;5051920;28;20212;-61
2022/03/04 09:11:53;;;;;;;29.20;21.73;;;;;;;9.07;47.50;99341.47;5051763;28;20547;-60
2022/03/04 09:14:23;;;;;;;29.80;20.80;;;;;;;8.80;47.46;99339.22;5052027;28;20278;-60
2022/03/04 09:16:50;;;;;;;22.97;17.63;;;;;;;9.00;46.09;99329.38;5052434;28;20218;-60
2022/03/04 09:19:17;;;;;;;23.40;18.13;;;;;;;9.18;45.32;99342.56;5051190;28;20195;-61
2022/03/04 09:21:44;;;;;;;23.37;17.77;;;;;;;9.24;46.09;99333.28;5042879;28;20563;-61
2022/03/04 09:24:11;;;;;;;26.45;20.38;;;;;;;9.25;46.36;99327.34;5050711;28;20439;-61
2022/03/04 09:26:37;;;;;;;21.97;18.07;;;;;;;9.43;46.10;99330.22;5051836;28;20662;-61
2022/03/04 09:29:05;;;;;;;35.83;18.67;;;;;;;9.50;45.43;99332.03;5051867;28;20231;-60
2022/03/04 09:31:33;;;;;;;22.13;18.73;;;;;;;9.54;45.47;99329.53;5051383;28;20323;-61
2022/03/04 09:34:00;;;;;;;27.10;18.27;;;;;;;9.52;44.67;99333.78;5052027;28;20189;-61
2022/03/04 09:36:27;;;;;;;19.60;17.23;;;;;;;9.45;45.21;99332.81;5048470;28;20203;-61
2022/03/04 09:38:54;;;;;;;22.97;17.30;;;;;;;9.33;44.70;99319.78;5050985;28;20689;-61
2022/03/04 09:41:21;;;;;;;23.48;19.40;;;;;;;9.18;45.05;99334.84;5050110;28;20438;-61
2022/03/04 09:43:50;;;;;;;24.83;18.63;;;;;;;9.42;44.95;99327.66;5049652;28;20192;-58
2022/03/04 09:46:21;;;;;;;19.87;16.43;;;;;;;9.34;45.45;99329.19;5049256;28;20187;-58
2022/03/04 09:48:49;;;;;;;19.97;16.80;;;;;;;9.67;45.29;99329.78;5051603;28;20564;-58
2022/03/04 09:51:16;;;;;;;23.03;17.93;;;;;;;9.91;44.22;99330.22;5061791;28;20222;-58
2022/03/04 09:53:45;;;;;;;21.70;17.67;;;;;;;10.09;44.02;99320.22;5071776;28;20198;-58
2022/03/04 09:56:13;;;;;;;19.83;15.60;;;;;;;10.16;43.62;99320.34;5054866;28;20189;-58
2022/03/04 09:58:40;;;;;;;20.80;16.50;;;;;;;10.23;43.69;99319.59;5050921;28;20282;-59
2022/03/04 10:01:11;;;;;;;23.07;16.57;;;;;;;10.23;43.55;99312.75;5049830;28;20192;-58
2022/03/04 10:03:46;;;;;;;20.77;17.27;;;;;;;10.08;43.44;99315.91;5050458;28;20196;-58
2022/03/04 10:06:15;;;;;;;22.20;17.33;;;;;;;10.51;43.10;99304.59;5049125;28;20271;-60
2022/03/04 10:08:44;;;;;;;30.67;18.07;;;;;;;10.73;42.29;99310.00;5050615;28;20265;-59
2022/03/04 10:11:12;;;;;;;24.67;17.30;;;;;;;10.79;42.07;99299.81;5053693;28;20219;-60
2022/03/04 10:13:47;;;;;;;24.35;18.55;;;;;;;10.96;42.08;99300.88;5049973;28;20447;-58
2022/03/04 10:16:23;;;;;;;22.77;17.57;;;;;;;11.33;41.12;99309.84;5051009;28;20199;-58
2022/03/04 10:19:05;;;;;;;23.33;18.33;;;;;;;11.67;40.46;99302.44;5048935;28;20209;-59
2022/03/04 10:21:50;;;;;;;28.43;17.87;;;;;;;11.73;40.08;99296.50;5048398;28;20181;-58
2022/03/04 10:24:18;;;;;;;22.83;16.23;;;;;;;11.66;39.38;99297.28;5059893;28;20221;-61
2022/03/04 10:26:45;;;;;;;26.63;16.10;;;;;;;11.08;39.70;99299.28;5071245;28;20195;-61
2022/03/04 10:29:20;;;;;;;23.30;16.53;;;;;;;11.22;39.36;99277.16;5052047;28;20231;-61
2022/03/04 10:32:10;;;;;;;19.17;16.60;;;;;;;11.53;39.54;99298.03;5048728;28;20199;-61
2022/03/04 10:34:56;;;;;;;19.43;16.50;;;;;;;11.65;38.96;99292.97;5048057;28;20223;-61
2022/03/04 10:37:40;;;;;;;24.03;16.33;;;;;;;11.91;38.26;99285.50;5048392;28;20184;-61
2022/03/04 10:40:10;;;;;;;26.67;18.13;;;;;;;11.87;38.72;99284.63;5040893;28;20713;-61
2022/03/04 10:42:42;;;;;;;18.87;14.10;;;;;;;11.52;37.40;99279.16;5047690;28;20192;-61
2022/03/04 10:45:11;;;;;;;17.87;14.50;;;;;;;11.67;37.68;99278.44;5050384;28;20290;-61
2022/03/04 10:47:49;;;;;;;22.80;13.77;;;;;;;11.82;36.99;99278.56;5047552;28;20181;-61
2022/03/04 10:50:19;;;;;;;20.47;15.37;;;;;;;12.03;37.38;99265.00;5049989;28;20548;-61
2022/03/04 10:52:57;;;;;;;21.60;15.33;;;;;;;11.94;37.55;99275.25;5050120;28;20176;-61
2022/03/04 10:55:36;;;;;;;20.93;15.83;;;;;;;11.77;38.13;99264.81;5047879;28;20188;-61
2022/03/04 10:58:05;;;;;;;21.70;17.20;;;;;;;11.68;38.48;99269.84;5045738;28;20455;-61
2022/03/04 11:00:35;;;;;;;16.27;13.80;;;;;;;11.48;37.26;99264.53;5049677;28;20515;-62
2022/03/04 11:03:03;;;;;;;18.90;13.37;;;;;;;10.91;37.82;99264.81;5047547;28;20336;-61
2022/03/04 11:05:31;;;;;;;22.07;14.70;;;;;;;10.93;38.00;99270.84;5049699;28;20256;-61
2022/03/04 11:07:59;;;;;;;13.33;11.93;;;;;;;10.85;36.61;99213.34;5047334;28;20201;-61
2022/03/04 11:10:27;;;;;;;15.50;12.70;;;;;;;10.81;37.94;99221.88;5049253;28;20212;-61
2022/03/04 11:12:55;;;;;;;17.73;14.67;;;;;;;11.14;38.01;99252.22;5049853;28;20607;-61
2022/03/04 11:15:24;;;;;;;17.63;12.83;;;;;;;11.27;37.77;99241.19;5049298;28;20204;-62
2022/03/04 11:17:52;;;;;;;18.93;13.83;;;;;;;10.92;38.63;99243.44;5038942;28;20208;-59
2022/03/04 11:20:20;;;;;;;22.37;12.97;;;;;;;11.07;38.68;99245.31;5031067;28;20197;-59
2022/03/04 11:22:49;;;;;;;21.08;16.30;;;;;;;11.00;39.66;99208.38;5042079;28;20435;-58
2022/03/04 11:25:18;;;;;;;17.67;15.23;;;;;;;11.17;39.82;99237.69;5047567;28;20335;-58
2022/03/04 11:27:46;;;;;;;16.50;14.13;;;;;;;11.14;39.94;99232.50;5049365;28;20219;-59